Time;durP1;ratioP1;P1;durP2;ratioP2;P2;SDS_P1;SDS_P2;PMS_P1;PMS_P2;Temp;Humidity;BMP_temperature;BMP_pressure;BME280_temperature;BME280_humidity;BME280_pressure;Samples;Min_cycle;Max_cycle;Signal;HPM_P1;HPM_P2
2022/01/08 00:00:37;;;;;;;7.80;4.97;;;;;;;4.70;70.79;99660.81;5082411;28;20048;-84
2022/01/08 00:03:04;;;;;;;9.57;4.65;;;;;;;4.64;71.10;99667.50;5082539;28;20052;-84
2022/01/08 00:05:31;;;;;;;7.68;4.28;;;;;;;4.67;70.70;99662.22;5083367;28;20048;-83
2022/01/08 00:07:59;;;;;;;8.52;4.65;;;;;;;4.59;71.57;99665.63;5082840;28;20052;-82
2022/01/08 00:10:26;;;;;;;7.57;4.63;;;;;;;4.59;71.35;99675.84;5082750;28;20055;-84
2022/01/08 00:12:56;;;;;;;8.48;4.68;;;;;;;4.62;71.28;99670.59;5081431;28;20060;-84
2022/01/08 00:15:23;;;;;;;7.15;4.95;;;;;;;4.70;70.78;99668.28;5082207;28;20052;-84
2022/01/08 00:17:51;;;;;;;7.63;4.65;;;;;;;4.78;70.98;99667.63;5081559;28;20409;-83
2022/01/08 00:20:18;;;;;;;5.97;4.72;;;;;;;4.81;71.11;99678.91;5081940;28;20048;-82
2022/01/08 00:22:49;;;;;;;8.88;4.97;;;;;;;4.85;70.84;99668.91;5081570;28;20408;-82
2022/01/08 00:25:17;;;;;;;8.35;5.35;;;;;;;4.79;70.77;99667.34;5081886;28;20052;-84
2022/01/08 00:27:44;;;;;;;7.43;4.60;;;;;;;4.91;70.55;99660.56;5081009;28;20074;-84
2022/01/08 00:30:14;;;;;;;7.40;4.45;;;;;;;5.00;70.24;99670.63;5082043;28;20053;-84
2022/01/08 00:32:42;;;;;;;6.35;4.45;;;;;;;5.09;69.90;99673.56;5081431;28;20052;-84
2022/01/08 00:35:10;;;;;;;6.80;4.60;;;;;;;4.99;70.02;99673.69;5081577;28;20048;-82
2022/01/08 00:37:38;;;;;;;7.55;3.92;;;;;;;5.04;69.83;99676.38;5081413;28;20053;-82
2022/01/08 00:40:07;;;;;;;6.93;3.53;;;;;;;5.13;70.54;99673.78;5084551;28;20052;-83
2022/01/08 00:42:35;;;;;;;8.70;4.78;;;;;;;5.12;70.29;99672.13;5084764;28;20052;-83
2022/01/08 00:45:03;;;;;;;9.90;4.80;;;;;;;5.15;68.99;99672.38;5084302;28;20060;-84
2022/01/08 00:47:32;;;;;;;7.95;3.65;;;;;;;5.20;68.91;99680.56;5085038;28;20048;-85
2022/01/08 00:50:00;;;;;;;5.68;4.07;;;;;;;5.18;69.29;99674.50;5084344;28;20060;-85
2022/01/08 00:52:27;;;;;;;7.88;4.90;;;;;;;5.09;69.05;99684.59;5085449;28;20048;-84
2022/01/08 00:54:55;;;;;;;7.38;4.38;;;;;;;5.06;69.66;99676.88;5085571;28;20048;-84
2022/01/08 00:57:22;;;;;;;6.68;4.20;;;;;;;5.07;69.55;99681.31;5086228;28;20059;-86
2022/01/08 00:59:49;;;;;;;6.97;4.32;;;;;;;4.99;69.46;99691.06;5085801;28;20488;-85
2022/01/08 01:02:16;;;;;;;8.18;4.15;;;;;;;4.79;70.56;99678.38;5083657;28;20052;-84
2022/01/08 01:04:45;;;;;;;11.55;4.72;;;;;;;4.96;69.96;99685.34;5083561;28;20067;-84
2022/01/08 01:07:13;;;;;;;7.03;4.55;;;;;;;4.91;69.80;99677.09;5083860;28;20409;-84
2022/01/08 01:09:40;;;;;;;6.75;4.93;;;;;;;4.96;69.89;99677.06;5084388;28;20057;-84
2022/01/08 01:12:08;;;;;;;7.65;5.22;;;;;;;4.95;69.68;99669.88;5084280;28;20057;-84
2022/01/08 01:14:36;;;;;;;8.57;4.40;;;;;;;4.91;69.26;99677.91;5084049;28;20048;-83
2022/01/08 01:17:04;;;;;;;7.25;5.03;;;;;;;4.92;69.62;99673.25;5084305;28;20052;-84
2022/01/08 01:19:32;;;;;;;6.82;4.68;;;;;;;4.88;70.21;99673.81;5083812;28;20059;-83
2022/01/08 01:22:01;;;;;;;7.25;4.43;;;;;;;4.93;70.35;99675.69;5083426;28;20040;-84
2022/01/08 01:24:29;;;;;;;8.35;4.72;;;;;;;4.90;70.94;99675.47;5083430;28;20048;-84
2022/01/08 01:27:24;;;;;;;9.70;4.63;;;;;;;4.95;70.74;99678.16;5083879;28;20060;-84
2022/01/08 01:29:57;;;;;;;9.55;4.93;;;;;;;4.97;70.86;99673.97;5084227;28;20494;-84
2022/01/08 01:46:59;;;;;;;7.78;5.10;;;;;;;4.76;71.31;99675.38;5083945;28;20425;-84
2022/01/08 01:49:09;;;;;;;7.57;4.50;;;;;;;4.79;70.69;99675.63;5068418;28;20060;-84
2022/01/08 01:51:37;;;;;;;8.40;4.60;;;;;;;4.77;71.11;99672.31;5066179;28;20063;-84
2022/01/08 01:54:06;;;;;;;8.85;5.10;;;;;;;4.84;70.51;99678.28;5083500;28;20056;-83
2022/01/08 01:56:33;;;;;;;6.50;4.30;;;;;;;4.66;71.25;99690.94;5085287;28;20052;-84
2022/01/08 01:59:01;;;;;;;9.73;4.93;;;;;;;4.75;70.62;99682.03;5083916;28;20052;-85
2022/01/08 02:01:28;;;;;;;8.98;5.03;;;;;;;4.72;70.41;99683.41;5082982;28;20063;-84
2022/01/08 02:03:56;;;;;;;8.07;4.90;;;;;;;4.66;70.46;99685.44;5083437;28;20048;-85
2022/01/08 02:06:23;;;;;;;7.07;4.95;;;;;;;4.52;71.40;99680.91;5084335;28;20067;-84
2022/01/08 02:08:51;;;;;;;8.25;5.45;;;;;;;4.52;70.77;99686.44;5083964;28;20048;-85
2022/01/08 02:11:20;;;;;;;10.77;5.78;;;;;;;4.43;71.03;99684.31;5083411;28;20051;-84
2022/01/08 02:13:48;;;;;;;9.13;6.60;;;;;;;4.32;71.50;99684.72;5083744;28;20052;-83
2022/01/08 02:16:17;;;;;;;11.82;7.05;;;;;;;4.20;72.07;99685.94;5083880;28;20048;-84
2022/01/08 02:18:46;;;;;;;8.88;6.13;;;;;;;4.19;72.04;99687.03;5083654;28;20063;-84
2022/01/08 02:21:16;;;;;;;8.93;6.57;;;;;;;4.17;71.79;99683.75;5083094;28;20064;-84
2022/01/08 02:23:44;;;;;;;11.32;7.03;;;;;;;4.12;72.07;99685.75;5083496;28;20056;-84
2022/01/08 02:26:12;;;;;;;10.85;7.40;;;;;;;4.06;72.19;99683.03;5083176;28;20131;-84
2022/01/08 02:28:41;;;;;;;11.55;7.70;;;;;;;3.96;72.64;99685.88;5082874;28;20060;-83
2022/01/08 02:31:19;;;;;;;13.02;8.80;;;;;;;3.92;73.16;99690.34;5082201;28;20489;-84
2022/01/08 02:33:47;;;;;;;13.55;8.82;;;;;;;3.89;73.38;99692.88;5077480;28;20056;-84
2022/01/08 02:36:16;;;;;;;11.02;8.43;;;;;;;3.86;73.41;99692.34;5083011;28;20072;-84
2022/01/08 02:38:43;;;;;;;17.55;9.80;;;;;;;3.89;73.78;99695.63;5082662;28;20052;-84
2022/01/08 02:41:12;;;;;;;9.50;7.20;;;;;;;3.95;74.04;99694.44;5083084;28;20044;-84
2022/01/08 02:43:45;;;;;;;11.63;7.47;;;;;;;3.97;74.05;99698.56;5082766;28;20067;-84
2022/01/08 02:46:13;;;;;;;11.20;7.53;;;;;;;4.02;73.85;99695.75;5082653;28;20053;-84
2022/01/08 02:48:41;;;;;;;12.07;7.53;;;;;;;4.03;73.98;99691.91;5082045;28;20049;-84
2022/01/08 02:51:08;;;;;;;12.57;7.10;;;;;;;4.14;73.53;99680.78;5081591;28;20045;-83
2022/01/08 02:53:37;;;;;;;10.98;7.28;;;;;;;4.07;73.06;99676.44;5081458;28;20048;-83
2022/01/08 02:56:05;;;;;;;10.20;7.43;;;;;;;3.98;73.38;99669.06;5082696;28;20435;-84
2022/01/08 02:58:32;;;;;;;13.48;8.25;;;;;;;3.85;73.87;99670.56;5083246;28;20138;-83
2022/01/08 03:01:00;;;;;;;9.15;7.32;;;;;;;3.85;73.32;99678.84;5082344;28;20052;-84
2022/01/08 03:03:27;;;;;;;11.65;8.05;;;;;;;3.73;73.95;99676.44;5080831;28;20048;-83
2022/01/08 03:05:55;;;;;;;14.38;9.85;;;;;;;3.66;74.14;99676.78;5081671;28;20064;-83
2022/01/08 03:08:22;;;;;;;12.30;9.35;;;;;;;3.58;74.49;99677.41;5081652;28;20048;-84
2022/01/08 03:10:51;;;;;;;16.45;10.82;;;;;;;3.69;74.52;99671.81;5081385;28;20051;-85
2022/01/08 03:13:18;;;;;;;17.88;10.75;;;;;;;3.64;74.27;99672.69;5081252;28;20045;-83
2022/01/08 03:15:45;;;;;;;12.70;9.88;;;;;;;3.63;74.34;99674.63;5081454;28;20053;-82
2022/01/08 03:18:13;;;;;;;16.10;10.80;;;;;;;3.52;74.61;99681.31;5080436;28;20059;-84
2022/01/08 03:20:47;;;;;;;16.00;11.38;;;;;;;3.45;75.42;99675.31;5081910;28;20057;-82
2022/01/08 03:23:17;;;;;;;17.00;11.32;;;;;;;3.40;75.06;99672.59;5081223;28;20844;-83
2022/01/08 03:25:45;;;;;;;16.67;10.70;;;;;;;3.43;74.99;99675.59;5080799;28;20053;-82
2022/01/08 03:28:15;;;;;;;20.02;12.13;;;;;;;3.36;75.30;99674.25;5080712;28;20409;-83
2022/01/08 03:30:42;;;;;;;13.27;10.02;;;;;;;3.30;76.14;99680.91;5080754;28;20048;-83
2022/01/08 03:33:13;;;;;;;16.70;12.02;;;;;;;3.28;75.73;99677.66;5080480;28;20144;-83
2022/01/08 03:35:40;;;;;;;18.67;12.63;;;;;;;3.23;76.26;99675.72;5081273;28;20496;-83
2022/01/08 03:38:08;;;;;;;20.73;12.30;;;;;;;3.26;75.94;99683.44;5080900;28;20493;-83
2022/01/08 03:40:35;;;;;;;17.85;11.57;;;;;;;3.23;75.90;99686.72;5082648;28;20127;-83
2022/01/08 03:43:02;;;;;;;19.48;11.85;;;;;;;3.23;76.12;99686.72;5081853;28;20053;-84
2022/01/08 03:45:31;;;;;;;18.00;12.63;;;;;;;3.18;75.81;99693.09;5081741;28;20059;-84
2022/01/08 03:48:18;;;;;;;19.35;12.35;;;;;;;3.09;76.64;99694.81;5082262;28;20144;-84
2022/01/08 03:50:46;;;;;;;18.33;11.32;;;;;;;2.97;76.45;99688.81;5081045;28;20068;-82
2022/01/08 03:53:14;;;;;;;18.65;10.75;;;;;;;3.03;76.52;99684.94;5063597;28;20048;-82
2022/01/08 03:55:41;;;;;;;20.42;12.48;;;;;;;2.90;76.60;99686.38;5078780;28;20049;-83
2022/01/08 03:58:08;;;;;;;18.08;11.45;;;;;;;2.84;77.21;99693.84;5078288;28;20055;-83
2022/01/08 04:00:38;;;;;;;25.85;14.05;;;;;;;2.93;76.88;99696.81;5077971;28;20063;-83
2022/01/08 04:03:05;;;;;;;22.25;13.35;;;;;;;2.85;76.95;99700.16;5077283;28;20057;-83
2022/01/08 04:05:33;;;;;;;19.90;13.02;;;;;;;2.85;77.36;99700.97;5077004;28;20060;-84
2022/01/08 04:08:00;;;;;;;20.83;13.82;;;;;;;2.85;76.87;99709.22;5077471;28;20067;-83
2022/01/08 04:10:27;;;;;;;22.38;14.20;;;;;;;2.78;77.77;99710.66;5077895;28;20056;-83
2022/01/08 04:12:57;;;;;;;28.45;15.55;;;;;;;2.73;77.56;99708.75;5077099;28;20053;-84
2022/01/08 04:15:36;;;;;;;;;;;;;;;2.73;78.00;99725.25;5081368;28;20060;-82
2022/01/08 04:18:05;;;;;;;25.20;15.90;;;;;;;2.74;77.93;99726.88;5081631;28;19920;-82
2022/01/08 04:20:34;;;;;;;23.27;13.80;;;;;;;2.82;77.53;99734.53;5081499;28;20052;-83
2022/01/08 04:23:02;;;;;;;24.23;14.48;;;;;;;2.82;77.82;99729.03;5081823;28;20053;-83
2022/01/08 04:25:30;;;;;;;29.33;16.58;;;;;;;2.80;78.06;99741.44;5080254;28;20438;-83
2022/01/08 04:27:57;;;;;;;25.13;15.15;;;;;;;2.76;78.43;99751.34;5081365;28;20440;-83
2022/01/08 04:30:27;;;;;;;22.83;15.40;;;;;;;2.95;78.01;99755.13;5081669;28;20473;-82
2022/01/08 04:32:54;;;;;;;28.23;16.58;;;;;;;2.98;77.94;99751.81;5080480;28;20044;-82
2022/01/08 04:35:24;;;;;;;26.27;17.05;;;;;;;3.02;77.88;99755.66;5080463;28;20482;-83
2022/01/08 04:37:51;;;;;;;29.08;16.95;;;;;;;3.05;77.68;99760.59;5080789;28;20044;-83
2022/01/08 04:40:18;;;;;;;23.50;15.82;;;;;;;3.11;77.79;99761.38;5080779;28;20065;-83
2022/01/08 04:42:46;;;;;;;26.45;16.35;;;;;;;3.13;77.46;99755.59;5080226;28;20060;-83
2022/01/08 04:45:13;;;;;;;26.85;17.48;;;;;;;3.04;78.02;99758.09;5083020;28;20516;-83
2022/01/08 04:47:41;;;;;;;26.33;17.10;;;;;;;2.91;78.03;99765.03;5081551;28;20057;-83
2022/01/08 04:50:12;;;;;;;27.75;16.90;;;;;;;3.12;77.88;99774.03;5081121;28;20102;-83
2022/01/08 04:52:41;;;;;;;27.45;17.30;;;;;;;3.26;77.26;99771.50;5080363;28;20055;-82
2022/01/08 04:55:09;;;;;;;29.65;18.23;;;;;;;3.32;77.06;99778.63;5081613;28;20053;-84
2022/01/08 04:57:36;;;;;;;26.77;17.38;;;;;;;3.30;76.64;99771.72;5080603;28;20058;-82
2022/01/08 05:00:07;;;;;;;33.95;18.52;;;;;;;3.29;76.79;99778.34;5080765;28;20053;-82
2022/01/08 05:02:35;;;;;;;31.70;19.85;;;;;;;3.25;76.61;99784.44;5080577;28;20045;-82
2022/01/08 05:05:02;;;;;;;28.52;19.38;;;;;;;3.17;76.83;99782.28;5080601;28;20374;-82
2022/01/08 05:07:30;;;;;;;31.15;18.83;;;;;;;3.32;76.28;99778.63;5080591;28;20051;-82
2022/01/08 05:09:59;;;;;;;29.70;17.98;;;;;;;3.27;76.75;99786.88;5080895;28;20060;-82
2022/01/08 05:12:26;;;;;;;33.20;18.27;;;;;;;3.35;76.20;99788.25;5080773;28;20063;-83
2022/01/08 05:14:55;;;;;;;30.33;18.98;;;;;;;3.28;76.50;99790.50;5081298;28;20060;-83
2022/01/08 05:17:28;;;;;;;28.33;19.48;;;;;;;3.18;76.77;99785.84;5080114;28;20052;-82
2022/01/08 05:20:01;;;;;;;31.25;18.65;;;;;;;3.09;77.03;99785.59;5081210;28;20053;-82
2022/01/08 05:22:42;;;;;;;36.15;21.33;;;;;;;2.99;76.54;99788.41;5080124;28;20051;-81
2022/01/08 05:25:11;;;;;;;37.17;21.55;;;;;;;2.99;76.65;99783.72;5081298;28;20378;-83
2022/01/08 05:27:39;;;;;;;32.58;20.77;;;;;;;3.01;76.46;99781.50;5079983;28;20044;-83
2022/01/08 05:30:08;;;;;;;34.05;21.10;;;;;;;3.00;76.70;99795.53;5080468;28;20052;-83
2022/01/08 05:32:35;;;;;;;35.10;20.92;;;;;;;2.88;76.69;99792.28;5079856;28;20045;-83
2022/01/08 05:35:03;;;;;;;33.92;20.13;;;;;;;2.88;77.24;99795.03;5080447;28;20053;-82
2022/01/08 05:37:30;;;;;;;36.90;21.15;;;;;;;2.88;76.68;99787.63;5080267;28;20413;-82
2022/01/08 05:39:57;;;;;;;42.67;23.88;;;;;;;2.90;76.37;99796.41;5079686;28;20059;-83
2022/01/08 05:42:26;;;;;;;36.80;22.30;;;;;;;2.91;76.29;99799.97;5079874;28;20044;-83
2022/01/08 05:44:53;;;;;;;37.30;22.88;;;;;;;2.74;76.74;99803.88;5040055;28;20050;-83
2022/01/08 05:47:21;;;;;;;39.33;23.90;;;;;;;2.67;77.72;99803.34;5040176;28;20049;-83
2022/01/08 05:49:49;;;;;;;44.03;26.20;;;;;;;2.69;77.50;99803.91;5039450;28;20410;-83
2022/01/08 05:52:17;;;;;;;41.65;23.05;;;;;;;2.68;77.38;99804.97;5039856;28;20050;-82
2022/01/08 05:54:44;;;;;;;37.55;24.50;;;;;;;2.63;77.11;99807.75;5039349;28;20049;-83
2022/01/08 05:57:12;;;;;;;41.35;24.90;;;;;;;2.56;78.12;99807.19;5040575;28;20053;-82
2022/01/08 05:59:40;;;;;;;38.33;22.48;;;;;;;2.67;77.81;99808.84;5040488;28;20064;-82
2022/01/08 06:02:09;;;;;;;45.72;24.48;;;;;;;2.64;77.86;99803.88;5040096;28;20069;-82
2022/01/08 06:04:37;;;;;;;45.42;26.52;;;;;;;2.54;78.25;99801.16;5039097;28;20076;-82
2022/01/08 06:07:05;;;;;;;38.42;24.30;;;;;;;2.50;78.03;99803.66;5040153;28;20053;-83
2022/01/08 06:09:32;;;;;;;40.88;24.83;;;;;;;2.52;77.80;99806.09;5040294;28;20475;-82
2022/01/08 06:11:59;;;;;;;41.88;27.58;;;;;;;2.45;78.63;99820.13;5039058;28;20053;-82
2022/01/08 06:14:27;;;;;;;40.25;26.17;;;;;;;2.49;78.64;99812.19;5039844;28;20053;-82
2022/01/08 06:16:55;;;;;;;36.92;21.98;;;;;;;2.43;78.20;99809.41;5039766;28;20061;-81
2022/01/08 06:19:23;;;;;;;39.22;23.35;;;;;;;2.35;79.07;99822.91;5039140;28;20506;-82
2022/01/08 06:21:50;;;;;;;39.58;24.38;;;;;;;2.39;78.49;99822.09;5039210;28;20049;-83
2022/01/08 06:24:17;;;;;;;44.28;24.83;;;;;;;2.44;78.01;99833.06;5039300;28;20057;-83
2022/01/08 06:26:45;;;;;;;39.63;24.10;;;;;;;2.46;77.97;99831.94;5039856;28;20049;-82
2022/01/08 06:29:12;;;;;;;41.60;24.63;;;;;;;2.43;78.34;99831.41;5039690;28;20049;-82
2022/01/08 06:31:39;;;;;;;39.40;24.42;;;;;;;2.39;78.44;99835.84;5039440;28;20057;-83
2022/01/08 06:34:08;;;;;;;40.45;25.05;;;;;;;2.37;78.30;99832.53;5038209;28;20050;-82
2022/01/08 06:36:35;;;;;;;43.03;26.15;;;;;;;2.33;78.99;99836.94;5038410;28;20053;-83
2022/01/08 06:39:02;;;;;;;41.50;25.05;;;;;;;2.46;78.84;99831.94;5039678;28;20509;-83
2022/01/08 06:41:30;;;;;;;38.03;23.50;;;;;;;2.51;78.17;99837.47;5039183;28;20061;-83
2022/01/08 06:43:57;;;;;;;35.67;22.83;;;;;;;2.50;78.19;99838.53;5064039;28;20058;-83
2022/01/08 06:46:25;;;;;;;42.33;25.02;;;;;;;2.47;78.42;99830.88;5078945;28;20059;-83
2022/01/08 06:48:53;;;;;;;40.10;23.05;;;;;;;2.39;78.30;99841.31;5078496;28;20079;-83
2022/01/08 06:51:21;;;;;;;39.17;22.27;;;;;;;2.47;77.57;99837.19;5078746;28;20603;-83
2022/01/08 06:53:49;;;;;;;36.35;21.98;;;;;;;2.44;78.24;99837.75;5078676;28;20060;-82
2022/01/08 06:56:17;;;;;;;33.88;21.83;;;;;;;2.39;78.20;99849.56;5079518;28;20060;-83
2022/01/08 06:58:45;;;;;;;35.92;22.45;;;;;;;2.40;77.84;99851.22;5079554;28;20060;-82
2022/01/08 07:01:12;;;;;;;33.05;19.67;;;;;;;2.42;77.78;99860.00;5079303;28;20048;-83
2022/01/08 07:03:40;;;;;;;36.95;21.92;;;;;;;2.40;77.82;99859.47;5077911;28;20067;-83
2022/01/08 07:06:07;;;;;;;34.35;19.95;;;;;;;2.42;78.01;99864.69;5078177;28;20061;-83
2022/01/08 07:08:36;;;;;;;35.25;20.17;;;;;;;2.46;77.46;99871.28;5078618;28;20055;-82
2022/01/08 07:11:04;;;;;;;29.85;19.13;;;;;;;2.36;77.77;99874.84;5077784;28;20055;-83
2022/01/08 07:13:31;;;;;;;32.53;20.40;;;;;;;2.36;77.66;99871.28;5077978;28;20138;-83
2022/01/08 07:15:58;;;;;;;29.70;19.63;;;;;;;2.35;77.83;99872.38;5078640;28;20056;-83
2022/01/08 07:18:26;;;;;;;32.42;20.58;;;;;;;2.32;77.87;99878.41;5077574;28;20049;-83
2022/01/08 07:20:54;;;;;;;27.00;18.00;;;;;;;2.29;78.08;99882.53;5078546;28;20060;-84
2022/01/08 07:23:22;;;;;;;34.35;20.15;;;;;;;2.37;77.20;99887.50;5077246;28;20044;-83
2022/01/08 07:25:51;;;;;;;34.50;20.55;;;;;;;2.48;77.10;99892.97;5078826;28;20053;-83
2022/01/08 07:28:18;;;;;;;29.65;19.50;;;;;;;2.33;78.11;99896.53;5077613;28;20061;-84
2022/01/08 07:30:46;;;;;;;33.95;19.80;;;;;;;2.36;78.19;99896.00;5077768;28;20053;-83
2022/01/08 07:33:13;;;;;;;28.40;17.63;;;;;;;2.54;77.96;99891.88;5078005;28;20059;-84
2022/01/08 07:35:41;;;;;;;29.08;17.20;;;;;;;2.60;77.35;99891.63;5078297;28;20044;-83
2022/01/08 07:38:08;;;;;;;32.67;19.75;;;;;;;2.53;78.36;99890.25;5078312;28;20071;-84
2022/01/08 07:40:36;;;;;;;30.05;19.10;;;;;;;2.64;77.34;99906.44;5078045;28;20052;-84
2022/01/08 07:43:05;;;;;;;28.95;18.63;;;;;;;2.76;77.78;99900.66;5078431;28;20052;-83
2022/01/08 07:45:32;;;;;;;29.35;18.15;;;;;;;2.83;77.60;99901.22;5078761;28;20056;-84
2022/01/08 07:48:00;;;;;;;32.25;20.67;;;;;;;2.83;76.89;99901.22;5078196;28;20512;-84
2022/01/08 07:50:27;;;;;;;29.27;18.13;;;;;;;3.06;76.20;99901.72;5082049;28;20052;-83
2022/01/08 07:52:54;;;;;;;30.13;17.55;;;;;;;3.12;76.58;99895.09;5081949;28;20067;-83
2022/01/08 07:55:22;;;;;;;27.73;16.65;;;;;;;3.14;76.05;99900.31;5082911;28;20052;-84
2022/01/08 07:57:49;;;;;;;27.90;18.05;;;;;;;3.17;75.78;99900.59;5083431;28;20057;-83
2022/01/08 08:00:18;;;;;;;28.02;17.13;;;;;;;3.23;75.49;99904.16;5080382;28;20064;-83
2022/01/08 08:02:46;;;;;;;27.10;17.80;;;;;;;3.28;75.90;99901.41;5080396;28;20485;-83
2022/01/08 08:05:13;;;;;;;28.92;17.83;;;;;;;3.31;75.18;99891.75;5082169;28;20063;-83
2022/01/08 08:07:41;;;;;;;31.63;17.40;;;;;;;3.24;75.62;99901.13;5081368;28;20044;-83
2022/01/08 08:10:11;;;;;;;30.63;17.30;;;;;;;3.34;75.14;99902.19;5082243;28;20057;-83
2022/01/08 08:12:38;;;;;;;;;;;;;;;3.32;74.72;99885.97;5082268;28;20052;-82
2022/01/08 08:15:07;;;;;;;29.42;16.38;;;;;;;3.29;75.35;99880.19;5081769;28;19920;-83
2022/01/08 08:17:37;;;;;;;25.65;17.15;;;;;;;3.23;75.09;99888.47;5080494;28;20417;-84
2022/01/08 08:20:06;;;;;;;27.35;16.05;;;;;;;3.31;76.07;99880.75;5081329;28;20075;-84
2022/01/08 08:22:33;;;;;;;22.83;15.35;;;;;;;3.44;74.73;99885.63;5081531;28;20063;-83
2022/01/08 08:25:01;;;;;;;32.05;21.67;;;;;;;3.41;75.81;99881.50;5081242;28;20067;-84
2022/01/08 08:27:29;;;;;;;28.17;17.40;;;;;;;3.52;75.48;99887.81;5081843;28;20053;-84
2022/01/08 08:30:00;;;;;;;24.92;15.63;;;;;;;3.77;74.33;99886.84;5081725;28;20056;-83
2022/01/08 08:32:28;;;;;;;24.00;16.23;;;;;;;3.92;73.45;99880.44;5078331;28;20056;-83
2022/01/08 08:34:57;;;;;;;25.85;16.88;;;;;;;3.82;73.45;99894.25;5081612;28;20049;-84
2022/01/08 08:37:24;;;;;;;24.25;15.68;;;;;;;3.79;73.93;99892.09;5081698;28;20048;-84
2022/01/08 08:39:51;;;;;;;24.48;15.65;;;;;;;4.03;73.40;99894.97;5081207;28;20063;-83
2022/01/08 08:42:19;;;;;;;22.63;14.30;;;;;;;4.17;73.51;99889.66;5081711;28;20059;-83
2022/01/08 08:44:46;;;;;;;25.45;15.35;;;;;;;4.40;72.33;99880.66;5080070;28;20044;-84
2022/01/08 08:47:14;;;;;;;24.40;13.95;;;;;;;4.55;72.38;99868.66;5081540;28;20060;-84
2022/01/08 08:49:43;;;;;;;19.90;12.88;;;;;;;5.18;70.30;99872.47;5080879;28;20056;-83
2022/01/08 08:52:12;;;;;;;25.98;15.23;;;;;;;5.76;68.77;99874.25;5079865;28;20394;-83
2022/01/08 08:54:41;;;;;;;19.60;13.57;;;;;;;6.01;67.52;99862.88;5079821;28;20059;-84
2022/01/08 08:57:09;;;;;;;22.25;13.50;;;;;;;6.30;65.79;99864.66;5081216;28;20386;-85
2022/01/08 08:59:37;;;;;;;19.25;13.38;;;;;;;6.30;65.55;99867.41;5081430;28;20489;-84
2022/01/08 09:02:05;;;;;;;16.23;11.25;;;;;;;6.08;66.31;99856.97;5081172;28;20051;-83
2022/01/08 09:04:32;;;;;;;19.92;13.13;;;;;;;6.15;65.84;99870.41;5079698;28;20040;-84
2022/01/08 09:06:59;;;;;;;21.10;14.20;;;;;;;5.99;65.60;99856.81;5081358;28;20063;-83
2022/01/08 09:09:28;;;;;;;18.02;12.02;;;;;;;5.77;66.23;99860.13;5080633;28;20063;-84
2022/01/08 09:11:55;;;;;;;21.80;11.93;;;;;;;5.50;67.94;99860.75;5079842;28;20055;-84
2022/01/08 09:14:23;;;;;;;23.40;13.43;;;;;;;6.01;66.16;99851.81;5079410;28;20048;-83
2022/01/08 09:16:52;;;;;;;17.40;11.75;;;;;;;6.10;65.90;99847.22;5078834;28;20056;-83
2022/01/08 09:19:22;;;;;;;17.10;11.00;;;;;;;6.59;63.69;99856.13;5079035;28;20056;-83
2022/01/08 09:21:51;;;;;;;15.90;10.80;;;;;;;6.96;62.13;99854.38;5079623;28;20059;-83
2022/01/08 09:24:19;;;;;;;18.17;10.65;;;;;;;7.56;61.79;99847.09;5078889;28;20048;-83
2022/01/08 09:26:49;;;;;;;17.52;11.05;;;;;;;7.53;60.22;99843.00;5079899;28;20071;-82
2022/01/08 09:29:17;;;;;;;18.67;11.07;;;;;;;7.14;61.26;99860.97;5079110;28;20048;-82
2022/01/08 09:31:44;;;;;;;19.35;11.65;;;;;;;6.44;62.85;99859.97;5078620;28;20425;-82
2022/01/08 09:34:13;;;;;;;19.15;11.82;;;;;;;6.36;63.66;99863.41;5078631;28;20481;-81
2022/01/08 09:36:41;;;;;;;17.92;12.00;;;;;;;6.17;64.10;99857.91;5078484;28;20409;-82
2022/01/08 09:39:09;;;;;;;21.52;11.98;;;;;;;5.75;65.64;99861.53;5078965;28;20060;-81
2022/01/08 09:41:36;;;;;;;18.58;11.60;;;;;;;5.72;65.06;99857.44;5077350;28;20053;-82
2022/01/08 09:44:06;;;;;;;15.95;11.85;;;;;;;6.97;63.49;99849.66;5077342;28;20053;-81
2022/01/08 09:46:34;;;;;;;14.32;10.23;;;;;;;7.78;59.74;99838.84;5077113;28;20052;-81
2022/01/08 09:49:01;;;;;;;16.98;11.30;;;;;;;7.04;61.26;99839.00;5078877;28;20056;-81
2022/01/08 09:51:29;;;;;;;18.48;10.70;;;;;;;7.13;61.02;99834.38;5078218;28;20063;-83
2022/01/08 09:53:57;;;;;;;17.17;10.68;;;;;;;8.25;58.73;99836.66;5080498;28;20060;-84
2022/01/08 09:56:26;;;;;;;15.55;9.98;;;;;;;7.75;58.64;99835.84;5078903;28;20044;-83
2022/01/08 09:58:55;;;;;;;17.58;9.98;;;;;;;7.52;59.90;99819.19;5078282;28;20059;-83
2022/01/08 10:01:27;;;;;;;16.15;11.15;;;;;;;7.47;60.38;99822.06;5078558;28;20052;-83
2022/01/08 10:03:55;;;;;;;18.73;11.90;;;;;;;7.08;61.48;99826.19;5078653;28;20389;-83
2022/01/08 10:06:24;;;;;;;18.88;13.07;;;;;;;7.08;60.31;99823.41;5079905;28;20045;-83
2022/01/08 10:08:53;;;;;;;19.50;12.98;;;;;;;6.85;61.25;99845.44;5079456;28;20346;-84
2022/01/08 10:11:21;;;;;;;20.25;12.68;;;;;;;6.43;63.10;99843.69;5077957;28;20056;-83
2022/01/08 10:13:58;;;;;;;21.98;13.23;;;;;;;6.12;64.12;99833.13;5078113;28;20405;-83
2022/01/08 10:19:21;;;;;;;20.13;14.73;;;;;;;6.00;64.72;99839.09;5073470;28;20063;-83
2022/01/08 10:21:49;;;;;;;26.50;13.45;;;;;;;5.70;66.17;99835.63;5077840;28;20064;-82
2022/01/08 10:24:22;;;;;;;25.95;13.25;;;;;;;5.83;65.18;99819.44;5077243;28;20045;-82
2022/01/08 10:26:51;;;;;;;25.48;15.48;;;;;;;5.70;66.00;99819.03;5076832;28;20048;-82
2022/01/08 10:29:21;;;;;;;21.98;12.80;;;;;;;5.55;67.31;99805.47;5078655;28;20044;-83
2022/01/08 10:31:51;;;;;;;20.00;13.23;;;;;;;5.72;66.29;99806.88;5078053;28;20060;-82
2022/01/08 10:34:21;;;;;;;24.42;13.50;;;;;;;5.56;66.90;99811.78;5078375;28;20060;-82
2022/01/08 10:36:57;;;;;;;25.73;13.25;;;;;;;5.39;67.39;99798.50;5070355;28;20052;-82
2022/01/08 10:39:28;;;;;;;21.17;13.02;;;;;;;5.47;66.72;99800.59;5077570;28;20059;-81
2022/01/08 10:41:57;;;;;;;19.88;12.70;;;;;;;5.39;67.30;99792.97;5077595;28;20052;-83
2022/01/08 10:44:26;;;;;;;21.52;12.15;;;;;;;5.24;68.06;99778.25;5076999;28;20063;-83
2022/01/08 10:47:00;;;;;;;20.50;11.82;;;;;;;5.15;68.34;99777.25;5076786;28;20132;-85
2022/01/08 10:49:31;;;;;;;23.55;13.15;;;;;;;5.11;68.58;99762.41;5078897;28;20048;-84
2022/01/08 10:51:59;;;;;;;17.50;11.48;;;;;;;5.43;68.39;99752.59;5078075;28;20060;-83
2022/01/08 10:54:28;;;;;;;19.90;11.40;;;;;;;5.90;66.23;99750.78;5078616;28;20072;-86
2022/01/08 10:56:59;;;;;;;21.98;11.55;;;;;;;6.13;64.65;99748.22;5078550;28;20044;-86
2022/01/08 10:59:28;;;;;;;16.88;9.82;;;;;;;6.08;64.74;99733.34;5078106;28;20409;-85
2022/01/08 11:01:59;;;;;;;17.50;10.00;;;;;;;5.91;64.95;99727.53;5078415;28;20052;-86
2022/01/08 11:04:41;;;;;;;;;;;;;;;5.84;64.53;99735.41;5078266;28;20048;-85
2022/01/08 11:07:11;;;;;;;17.20;9.70;;;;;;;5.89;64.68;99715.97;5077711;28;19921;-85
2022/01/08 11:09:39;;;;;;;15.60;8.95;;;;;;;5.67;65.36;99717.44;5078326;28;20056;-85
2022/01/08 11:12:10;;;;;;;15.00;9.43;;;;;;;5.80;64.98;99720.56;5078879;28;20052;-85
2022/01/08 11:14:59;;;;;;;16.50;10.02;;;;;;;6.36;63.86;99703.00;5078344;28;20052;-85
2022/01/08 11:17:31;;;;;;;16.27;9.73;;;;;;;6.70;63.66;99704.56;5077999;28;20056;-84
2022/01/08 11:20:00;;;;;;;14.98;9.15;;;;;;;7.09;61.86;99694.88;5078221;28;20036;-86
2022/01/08 11:22:30;;;;;;;13.18;8.70;;;;;;;7.15;60.79;99681.75;5079122;28;20063;-86
2022/01/08 11:25:03;;;;;;;14.10;8.98;;;;;;;6.94;61.49;99684.16;5077748;28;20057;-85
2022/01/08 11:27:39;;;;;;;11.07;7.22;;;;;;;6.71;61.28;99697.91;5078633;28;20068;-86
2022/01/08 11:30:11;;;;;;;12.48;6.88;;;;;;;6.50;61.75;99670.63;5078066;28;20055;-85
2022/01/08 11:32:40;;;;;;;9.52;6.07;;;;;;;7.06;59.76;99662.31;5079046;28;20433;-86
2022/01/08 11:35:11;;;;;;;7.97;6.05;;;;;;;6.83;60.20;99665.00;5078867;28;20056;-86
2022/01/08 11:37:45;;;;;;;10.57;6.22;;;;;;;7.99;56.43;99656.16;5078635;28;20389;-86
2022/01/08 11:40:14;;;;;;;10.75;6.00;;;;;;;8.13;55.98;99639.44;5078502;28;20067;-86
2022/01/08 11:42:42;;;;;;;11.10;5.70;;;;;;;8.37;55.54;99632.69;5077961;28;20048;-85
2022/01/08 11:45:13;;;;;;;10.35;5.50;;;;;;;8.32;54.44;99639.22;5078949;28;20052;-85
2022/01/08 11:47:45;;;;;;;9.98;5.65;;;;;;;8.86;53.57;99612.13;5078200;28;20052;-85
2022/01/08 11:50:15;;;;;;;7.90;5.05;;;;;;;8.70;53.30;99602.63;5078920;28;20053;-84
2022/01/08 11:52:42;;;;;;;8.10;4.85;;;;;;;8.29;54.19;99612.09;5077708;28;20053;-84
2022/01/08 11:55:10;;;;;;;8.85;5.68;;;;;;;7.56;56.05;99620.69;5078330;28;20049;-86